sensor_id;sensor_type;location;lat;lon;timestamp;P1;durP1;ratioP1;P2;durP2;ratioP2
2838;SDS011;1427;48.510;9.060;2024-03-02T00:01:07;46.00;;;2.87;;
2838;SDS011;1427;48.510;9.060;2024-03-02T00:03:36;47.47;;;3.37;;
2838;SDS011;1427;48.510;9.060;2024-03-02T00:06:04;46.23;;;2.50;;
2838;SDS011;1427;48.510;9.060;2024-03-02T00:08:35;46.17;;;2.53;;
2838;SDS011;1427;48.510;9.060;2024-03-02T00:11:03;48.43;;;3.03;;
2838;SDS011;1427;48.510;9.060;2024-03-02T00:13:31;50.30;;;2.80;;
2838;SDS011;1427;48.510;9.060;2024-03-02T00:16:01;45.80;;;2.57;;
2838;SDS011;1427;48.510;9.060;2024-03-02T00:18:32;50.00;;;2.60;;
2838;SDS011;1427;48.510;9.060;2024-03-02T00:21:02;46.30;;;2.50;;
2838;SDS011;1427;48.510;9.060;2024-03-02T00:23:37;46.50;;;2.60;;
2838;SDS011;1427;48.510;9.060;2024-03-02T00:26:05;47.60;;;3.23;;
2838;SDS011;1427;48.510;9.060;2024-03-02T00:28:35;45.73;;;2.47;;
2838;SDS011;1427;48.510;9.060;2024-03-02T00:31:05;45.93;;;2.27;;
2838;SDS011;1427;48.510;9.060;2024-03-02T00:33:34;46.17;;;3.20;;
2838;SDS011;1427;48.510;9.060;2024-03-02T00:36:04;46.27;;;2.93;;
2838;SDS011;1427;48.510;9.060;2024-03-02T00:38:34;45.13;;;2.10;;
2838;SDS011;1427;48.510;9.060;2024-03-02T00:41:14;46.67;;;2.50;;
2838;SDS011;1427;48.510;9.060;2024-03-02T00:43:47;46.20;;;2.17;;
2838;SDS011;1427;48.510;9.060;2024-03-02T00:46:20;45.80;;;2.23;;
2838;SDS011;1427;48.510;9.060;2024-03-02T00:48:53;44.97;;;1.87;;
2838;SDS011;1427;48.510;9.060;2024-03-02T00:51:23;45.80;;;2.27;;
2838;SDS011;1427;48.510;9.060;2024-03-02T00:53:57;46.23;;;2.90;;
2838;SDS011;1427;48.510;9.060;2024-03-02T00:56:26;47.43;;;4.20;;
2838;SDS011;1427;48.510;9.060;2024-03-02T00:58:54;55.47;;;5.57;;
2838;SDS011;1427;48.510;9.060;2024-03-02T01:01:23;49.10;;;3.20;;
2838;SDS011;1427;48.510;9.060;2024-03-02T01:03:51;46.70;;;3.27;;
2838;SDS011;1427;48.510;9.060;2024-03-02T01:06:20;46.87;;;3.30;;
2838;SDS011;1427;48.510;9.060;2024-03-02T01:08:49;49.03;;;4.20;;
2838;SDS011;1427;48.510;9.060;2024-03-02T01:11:20;45.97;;;2.10;;
2838;SDS011;1427;48.510;9.060;2024-03-02T01:13:49;45.77;;;2.30;;
2838;SDS011;1427;48.510;9.060;2024-03-02T01:16:18;45.90;;;2.20;;
2838;SDS011;1427;48.510;9.060;2024-03-02T01:18:47;47.73;;;3.50;;
2838;SDS011;1427;48.510;9.060;2024-03-02T01:21:15;44.80;;;1.63;;
2838;SDS011;1427;48.510;9.060;2024-03-02T01:23:43;46.20;;;2.13;;
2838;SDS011;1427;48.510;9.060;2024-03-02T01:26:11;48.03;;;2.53;;
2838;SDS011;1427;48.510;9.060;2024-03-02T01:28:41;47.27;;;1.93;;
2838;SDS011;1427;48.510;9.060;2024-03-02T01:31:09;45.47;;;2.43;;
2838;SDS011;1427;48.510;9.060;2024-03-02T01:33:37;46.60;;;2.20;;
2838;SDS011;1427;48.510;9.060;2024-03-02T01:36:05;47.27;;;3.00;;
2838;SDS011;1427;48.510;9.060;2024-03-02T01:38:35;45.90;;;2.30;;
2838;SDS011;1427;48.510;9.060;2024-03-02T01:41:03;46.67;;;2.53;;
2838;SDS011;1427;48.510;9.060;2024-03-02T01:43:31;45.83;;;2.27;;
2838;SDS011;1427;48.510;9.060;2024-03-02T01:46:00;46.83;;;2.00;;
2838;SDS011;1427;48.510;9.060;2024-03-02T01:48:28;48.20;;;2.50;;
2838;SDS011;1427;48.510;9.060;2024-03-02T01:50:57;46.37;;;2.33;;
2838;SDS011;1427;48.510;9.060;2024-03-02T01:53:25;47.00;;;2.90;;
2838;SDS011;1427;48.510;9.060;2024-03-02T01:55:54;45.93;;;2.73;;
2838;SDS011;1427;48.510;9.060;2024-03-02T01:58:22;47.00;;;2.70;;
2838;SDS011;1427;48.510;9.060;2024-03-02T02:00:50;47.90;;;3.03;;
2838;SDS011;1427;48.510;9.060;2024-03-02T02:03:20;47.57;;;3.50;;
2838;SDS011;1427;48.510;9.060;2024-03-02T02:05:48;51.53;;;3.30;;
2838;SDS011;1427;48.510;9.060;2024-03-02T02:08:16;46.37;;;2.53;;
2838;SDS011;1427;48.510;9.060;2024-03-02T02:10:44;46.60;;;2.73;;
2838;SDS011;1427;48.510;9.060;2024-03-02T02:13:12;46.93;;;2.63;;
2838;SDS011;1427;48.510;9.060;2024-03-02T02:15:40;48.27;;;2.23;;
2838;SDS011;1427;48.510;9.060;2024-03-02T02:18:09;48.20;;;3.30;;
2838;SDS011;1427;48.510;9.060;2024-03-02T02:20:38;45.57;;;2.40;;
2838;SDS011;1427;48.510;9.060;2024-03-02T02:23:07;49.90;;;2.77;;
2838;SDS011;1427;48.510;9.060;2024-03-02T02:25:36;45.67;;;2.13;;
2838;SDS011;1427;48.510;9.060;2024-03-02T02:28:05;48.87;;;3.33;;
2838;SDS011;1427;48.510;9.060;2024-03-02T02:30:33;47.30;;;2.60;;
2838;SDS011;1427;48.510;9.060;2024-03-02T02:33:01;46.63;;;2.37;;
2838;SDS011;1427;48.510;9.060;2024-03-02T02:35:29;47.37;;;3.10;;
2838;SDS011;1427;48.510;9.060;2024-03-02T02:37:58;45.50;;;2.07;;
2838;SDS011;1427;48.510;9.060;2024-03-02T02:40:27;49.90;;;3.63;;
2838;SDS011;1427;48.510;9.060;2024-03-02T02:42:57;46.50;;;2.50;;
2838;SDS011;1427;48.510;9.060;2024-03-02T02:45:25;49.33;;;3.23;;
2838;SDS011;1427;48.510;9.060;2024-03-02T02:47:53;45.40;;;2.37;;
2838;SDS011;1427;48.510;9.060;2024-03-02T02:50:22;50.40;;;2.60;;
2838;SDS011;1427;48.510;9.060;2024-03-02T02:52:50;45.00;;;2.07;;
2838;SDS011;1427;48.510;9.060;2024-03-02T02:55:18;45.67;;;2.63;;
2838;SDS011;1427;48.510;9.060;2024-03-02T02:57:47;47.03;;;2.63;;
2838;SDS011;1427;48.510;9.060;2024-03-02T03:00:16;51.70;;;3.60;;
2838;SDS011;1427;48.510;9.060;2024-03-02T03:02:47;46.77;;;3.10;;
2838;SDS011;1427;48.510;9.060;2024-03-02T03:05:17;45.77;;;2.20;;
2838;SDS011;1427;48.510;9.060;2024-03-02T03:07:45;46.27;;;2.37;;
2838;SDS011;1427;48.510;9.060;2024-03-02T03:10:15;45.47;;;2.37;;
2838;SDS011;1427;48.510;9.060;2024-03-02T03:12:43;45.70;;;2.33;;
2838;SDS011;1427;48.510;9.060;2024-03-02T03:15:13;45.37;;;2.10;;
2838;SDS011;1427;48.510;9.060;2024-03-02T03:17:42;45.77;;;2.03;;
2838;SDS011;1427;48.510;9.060;2024-03-02T03:20:12;49.00;;;3.00;;
2838;SDS011;1427;48.510;9.060;2024-03-02T03:22:41;47.47;;;2.40;;
2838;SDS011;1427;48.510;9.060;2024-03-02T03:25:10;48.60;;;2.10;;
2838;SDS011;1427;48.510;9.060;2024-03-02T03:27:38;45.37;;;2.30;;
2838;SDS011;1427;48.510;9.060;2024-03-02T03:30:08;47.20;;;3.17;;
2838;SDS011;1427;48.510;9.060;2024-03-02T03:32:39;45.00;;;1.97;;
2838;SDS011;1427;48.510;9.060;2024-03-02T03:35:07;46.20;;;2.17;;
2838;SDS011;1427;48.510;9.060;2024-03-02T03:37:36;45.30;;;2.03;;
2838;SDS011;1427;48.510;9.060;2024-03-02T03:40:05;45.03;;;1.83;;
2838;SDS011;1427;48.510;9.060;2024-03-02T03:42:37;45.27;;;2.07;;
2838;SDS011;1427;48.510;9.060;2024-03-02T03:45:06;46.00;;;2.67;;
2838;SDS011;1427;48.510;9.060;2024-03-02T03:47:34;46.70;;;2.70;;
2838;SDS011;1427;48.510;9.060;2024-03-02T03:50:05;44.97;;;1.80;;
2838;SDS011;1427;48.510;9.060;2024-03-02T03:52:34;47.97;;;3.33;;
2838;SDS011;1427;48.510;9.060;2024-03-02T03:55:03;44.83;;;1.80;;
2838;SDS011;1427;48.510;9.060;2024-03-02T03:57:32;47.60;;;4.33;;
2838;SDS011;1427;48.510;9.060;2024-03-02T04:00:01;45.13;;;2.20;;
2838;SDS011;1427;48.510;9.060;2024-03-02T04:02:29;45.17;;;2.03;;
2838;SDS011;1427;48.510;9.060;2024-03-02T04:04:57;45.77;;;2.97;;
2838;SDS011;1427;48.510;9.060;2024-03-02T04:07:27;47.97;;;2.87;;
2838;SDS011;1427;48.510;9.060;2024-03-02T04:09:55;46.17;;;3.40;;
2838;SDS011;1427;48.510;9.060;2024-03-02T04:12:23;45.57;;;2.60;;
2838;SDS011;1427;48.510;9.060;2024-03-02T04:14:52;46.37;;;2.83;;
2838;SDS011;1427;48.510;9.060;2024-03-02T04:17:20;49.40;;;4.10;;
2838;SDS011;1427;48.510;9.060;2024-03-02T04:19:48;45.57;;;2.40;;
2838;SDS011;1427;48.510;9.060;2024-03-02T04:22:16;45.27;;;2.20;;
2838;SDS011;1427;48.510;9.060;2024-03-02T04:24:52;49.37;;;2.77;;
2838;SDS011;1427;48.510;9.060;2024-03-02T04:27:20;44.97;;;1.90;;
2838;SDS011;1427;48.510;9.060;2024-03-02T04:29:49;47.30;;;2.33;;
2838;SDS011;1427;48.510;9.060;2024-03-02T04:32:17;47.90;;;2.13;;
2838;SDS011;1427;48.510;9.060;2024-03-02T04:34:46;54.30;;;4.07;;
2838;SDS011;1427;48.510;9.060;2024-03-02T04:37:14;49.50;;;2.50;;
2838;SDS011;1427;48.510;9.060;2024-03-02T04:39:42;44.57;;;1.57;;
2838;SDS011;1427;48.510;9.060;2024-03-02T04:42:12;44.60;;;1.83;;
2838;SDS011;1427;48.510;9.060;2024-03-02T04:44:41;44.90;;;2.10;;
2838;SDS011;1427;48.510;9.060;2024-03-02T04:47:09;46.47;;;2.10;;
2838;SDS011;1427;48.510;9.060;2024-03-02T04:49:37;49.60;;;2.57;;
2838;SDS011;1427;48.510;9.060;2024-03-02T04:52:05;45.37;;;2.43;;
2838;SDS011;1427;48.510;9.060;2024-03-02T04:54:33;44.87;;;1.90;;
2838;SDS011;1427;48.510;9.060;2024-03-02T04:57:23;44.83;;;1.87;;
2838;SDS011;1427;48.510;9.060;2024-03-02T04:59:52;44.90;;;1.83;;
2838;SDS011;1427;48.510;9.060;2024-03-02T05:02:20;44.70;;;1.93;;
2838;SDS011;1427;48.510;9.060;2024-03-02T05:04:48;54.20;;;2.73;;
2838;SDS011;1427;48.510;9.060;2024-03-02T05:07:16;45.17;;;2.10;;
2838;SDS011;1427;48.510;9.060;2024-03-02T05:09:44;44.87;;;1.70;;
2838;SDS011;1427;48.510;9.060;2024-03-02T05:12:14;44.83;;;1.90;;
2838;SDS011;1427;48.510;9.060;2024-03-02T05:15:08;44.87;;;1.83;;
2838;SDS011;1427;48.510;9.060;2024-03-02T05:17:37;45.33;;;2.17;;
2838;SDS011;1427;48.510;9.060;2024-03-02T05:20:05;44.67;;;1.80;;
2838;SDS011;1427;48.510;9.060;2024-03-02T05:22:35;45.00;;;1.93;;
2838;SDS011;1427;48.510;9.060;2024-03-02T05:25:03;46.20;;;1.90;;
2838;SDS011;1427;48.510;9.060;2024-03-02T05:27:32;47.03;;;2.00;;
2838;SDS011;1427;48.510;9.060;2024-03-02T05:30:01;45.37;;;2.23;;
2838;SDS011;1427;48.510;9.060;2024-03-02T05:32:31;46.43;;;2.70;;
2838;SDS011;1427;48.510;9.060;2024-03-02T05:34:59;46.20;;;2.20;;
2838;SDS011;1427;48.510;9.060;2024-03-02T05:37:27;45.83;;;2.40;;
2838;SDS011;1427;48.510;9.060;2024-03-02T05:39:55;44.80;;;2.00;;
2838;SDS011;1427;48.510;9.060;2024-03-02T05:42:23;51.20;;;4.00;;
2838;SDS011;1427;48.510;9.060;2024-03-02T05:44:52;44.70;;;1.80;;
2838;SDS011;1427;48.510;9.060;2024-03-02T05:47:20;47.23;;;3.70;;
2838;SDS011;1427;48.510;9.060;2024-03-02T05:49:50;45.17;;;2.17;;
2838;SDS011;1427;48.510;9.060;2024-03-02T05:52:18;44.50;;;1.53;;
2838;SDS011;1427;48.510;9.060;2024-03-02T05:54:47;45.27;;;2.40;;
2838;SDS011;1427;48.510;9.060;2024-03-02T05:57:16;44.90;;;1.90;;
2838;SDS011;1427;48.510;9.060;2024-03-02T05:59:58;44.70;;;1.40;;
2838;SDS011;1427;48.510;9.060;2024-03-02T06:02:26;46.30;;;3.33;;
2838;SDS011;1427;48.510;9.060;2024-03-02T06:04:55;45.20;;;2.00;;
2838;SDS011;1427;48.510;9.060;2024-03-02T06:07:24;48.53;;;4.30;;
2838;SDS011;1427;48.510;9.060;2024-03-02T06:09:52;44.57;;;1.50;;
2838;SDS011;1427;48.510;9.060;2024-03-02T06:12:20;45.50;;;2.17;;
2838;SDS011;1427;48.510;9.060;2024-03-02T06:14:48;45.03;;;2.00;;
2838;SDS011;1427;48.510;9.060;2024-03-02T06:17:17;45.57;;;3.10;;
2838;SDS011;1427;48.510;9.060;2024-03-02T06:19:45;59.43;;;6.20;;
2838;SDS011;1427;48.510;9.060;2024-03-02T06:22:15;46.70;;;5.60;;
2838;SDS011;1427;48.510;9.060;2024-03-02T06:24:46;45.20;;;2.80;;
2838;SDS011;1427;48.510;9.060;2024-03-02T06:27:14;46.20;;;4.00;;
2838;SDS011;1427;48.510;9.060;2024-03-02T06:29:42;45.80;;;3.57;;
2838;SDS011;1427;48.510;9.060;2024-03-02T06:32:10;46.80;;;5.10;;
2838;SDS011;1427;48.510;9.060;2024-03-02T06:34:39;47.13;;;4.93;;
2838;SDS011;1427;48.510;9.060;2024-03-02T06:37:07;48.90;;;4.70;;
2838;SDS011;1427;48.510;9.060;2024-03-02T06:39:36;54.07;;;5.90;;
2838;SDS011;1427;48.510;9.060;2024-03-02T06:42:05;49.47;;;5.57;;
2838;SDS011;1427;48.510;9.060;2024-03-02T06:44:33;50.27;;;3.87;;
2838;SDS011;1427;48.510;9.060;2024-03-02T06:47:01;55.63;;;5.00;;
2838;SDS011;1427;48.510;9.060;2024-03-02T06:49:30;46.97;;;3.57;;
2838;SDS011;1427;48.510;9.060;2024-03-02T06:51:58;48.10;;;4.90;;
2838;SDS011;1427;48.510;9.060;2024-03-02T06:54:26;46.10;;;3.73;;
2838;SDS011;1427;48.510;9.060;2024-03-02T06:56:56;55.17;;;6.33;;
2838;SDS011;1427;48.510;9.060;2024-03-02T06:59:24;47.93;;;4.90;;
2838;SDS011;1427;48.510;9.060;2024-03-02T07:01:52;47.47;;;4.70;;
2838;SDS011;1427;48.510;9.060;2024-03-02T07:04:20;46.27;;;4.13;;
2838;SDS011;1427;48.510;9.060;2024-03-02T07:06:49;46.07;;;4.33;;
2838;SDS011;1427;48.510;9.060;2024-03-02T07:09:17;45.60;;;3.43;;
2838;SDS011;1427;48.510;9.060;2024-03-02T07:11:49;47.53;;;3.60;;
2838;SDS011;1427;48.510;9.060;2024-03-02T07:14:19;46.93;;;4.80;;
2838;SDS011;1427;48.510;9.060;2024-03-02T07:16:47;47.60;;;4.07;;
2838;SDS011;1427;48.510;9.060;2024-03-02T07:19:15;45.50;;;3.20;;
2838;SDS011;1427;48.510;9.060;2024-03-02T07:21:43;45.87;;;3.70;;
2838;SDS011;1427;48.510;9.060;2024-03-02T07:24:12;45.87;;;3.57;;
2838;SDS011;1427;48.510;9.060;2024-03-02T07:26:41;46.17;;;4.07;;
2838;SDS011;1427;48.510;9.060;2024-03-02T07:29:12;45.87;;;3.57;;
2838;SDS011;1427;48.510;9.060;2024-03-02T07:31:42;46.00;;;4.20;;
2838;SDS011;1427;48.510;9.060;2024-03-02T07:34:10;48.60;;;4.63;;
2838;SDS011;1427;48.510;9.060;2024-03-02T07:36:38;45.67;;;3.43;;
2838;SDS011;1427;48.510;9.060;2024-03-02T07:39:06;47.73;;;4.10;;
2838;SDS011;1427;48.510;9.060;2024-03-02T07:41:35;49.97;;;4.73;;
2838;SDS011;1427;48.510;9.060;2024-03-02T07:44:03;48.30;;;4.63;;
2838;SDS011;1427;48.510;9.060;2024-03-02T07:46:32;46.40;;;3.80;;
2838;SDS011;1427;48.510;9.060;2024-03-02T07:49:01;46.43;;;4.57;;
2838;SDS011;1427;48.510;9.060;2024-03-02T07:51:29;45.87;;;4.00;;
2838;SDS011;1427;48.510;9.060;2024-03-02T07:53:58;46.70;;;3.80;;
2838;SDS011;1427;48.510;9.060;2024-03-02T07:56:26;47.50;;;3.53;;
2838;SDS011;1427;48.510;9.060;2024-03-02T07:58:54;46.20;;;3.93;;
2838;SDS011;1427;48.510;9.060;2024-03-02T08:01:23;46.93;;;4.10;;
2838;SDS011;1427;48.510;9.060;2024-03-02T08:03:52;48.27;;;5.50;;
2838;SDS011;1427;48.510;9.060;2024-03-02T08:06:23;49.37;;;4.97;;
2838;SDS011;1427;48.510;9.060;2024-03-02T08:08:53;46.60;;;3.83;;
2838;SDS011;1427;48.510;9.060;2024-03-02T08:11:22;48.77;;;4.07;;
2838;SDS011;1427;48.510;9.060;2024-03-02T08:13:50;46.10;;;3.60;;
2838;SDS011;1427;48.510;9.060;2024-03-02T08:16:21;46.70;;;4.33;;
2838;SDS011;1427;48.510;9.060;2024-03-02T08:18:51;48.17;;;3.50;;
2838;SDS011;1427;48.510;9.060;2024-03-02T08:21:20;46.63;;;3.97;;
2838;SDS011;1427;48.510;9.060;2024-03-02T08:23:49;45.67;;;3.20;;
2838;SDS011;1427;48.510;9.060;2024-03-02T08:26:18;46.30;;;3.87;;
2838;SDS011;1427;48.510;9.060;2024-03-02T08:28:46;47.30;;;4.00;;
2838;SDS011;1427;48.510;9.060;2024-03-02T08:31:14;46.47;;;4.30;;
2838;SDS011;1427;48.510;9.060;2024-03-02T08:33:42;46.93;;;4.60;;
2838;SDS011;1427;48.510;9.060;2024-03-02T08:36:10;45.63;;;3.40;;
2838;SDS011;1427;48.510;9.060;2024-03-02T08:38:39;47.90;;;4.10;;
2838;SDS011;1427;48.510;9.060;2024-03-02T08:41:08;46.23;;;3.90;;
2838;SDS011;1427;48.510;9.060;2024-03-02T08:43:40;46.83;;;3.40;;
2838;SDS011;1427;48.510;9.060;2024-03-02T08:46:08;47.87;;;4.50;;
2838;SDS011;1427;48.510;9.060;2024-03-02T08:48:37;45.87;;;3.47;;
2838;SDS011;1427;48.510;9.060;2024-03-02T08:51:05;47.90;;;5.40;;
2838;SDS011;1427;48.510;9.060;2024-03-02T08:53:34;52.73;;;4.77;;
2838;SDS011;1427;48.510;9.060;2024-03-02T08:56:03;47.17;;;3.97;;
2838;SDS011;1427;48.510;9.060;2024-03-02T08:58:33;49.20;;;7.83;;
2838;SDS011;1427;48.510;9.060;2024-03-02T09:01:02;46.50;;;4.20;;
2838;SDS011;1427;48.510;9.060;2024-03-02T09:03:30;49.57;;;4.77;;
2838;SDS011;1427;48.510;9.060;2024-03-02T09:06:06;46.77;;;3.70;;
2838;SDS011;1427;48.510;9.060;2024-03-02T09:08:38;48.10;;;4.27;;
2838;SDS011;1427;48.510;9.060;2024-03-02T09:11:06;50.20;;;5.13;;
2838;SDS011;1427;48.510;9.060;2024-03-02T09:13:36;52.10;;;5.80;;
2838;SDS011;1427;48.510;9.060;2024-03-02T09:16:05;62.90;;;6.50;;
2838;SDS011;1427;48.510;9.060;2024-03-02T09:18:37;52.83;;;5.00;;
2838;SDS011;1427;48.510;9.060;2024-03-02T09:21:05;48.10;;;4.97;;
2838;SDS011;1427;48.510;9.060;2024-03-02T09:23:36;57.40;;;5.50;;
2838;SDS011;1427;48.510;9.060;2024-03-02T09:26:08;51.00;;;5.30;;
2838;SDS011;1427;48.510;9.060;2024-03-02T09:28:38;51.00;;;5.07;;
2838;SDS011;1427;48.510;9.060;2024-03-02T09:31:09;49.00;;;5.40;;
2838;SDS011;1427;48.510;9.060;2024-03-02T09:33:41;51.70;;;5.87;;
2838;SDS011;1427;48.510;9.060;2024-03-02T09:36:16;53.60;;;6.53;;
2838;SDS011;1427;48.510;9.060;2024-03-02T09:38:45;49.80;;;5.50;;
2838;SDS011;1427;48.510;9.060;2024-03-02T09:41:13;53.80;;;5.57;;
2838;SDS011;1427;48.510;9.060;2024-03-02T09:43:43;56.40;;;6.30;;
2838;SDS011;1427;48.510;9.060;2024-03-02T09:46:11;57.43;;;5.63;;
2838;SDS011;1427;48.510;9.060;2024-03-02T09:48:39;54.27;;;5.77;;
2838;SDS011;1427;48.510;9.060;2024-03-02T09:51:07;51.17;;;5.70;;
2838;SDS011;1427;48.510;9.060;2024-03-02T09:53:36;54.27;;;6.87;;
2838;SDS011;1427;48.510;9.060;2024-03-02T09:56:05;64.87;;;9.83;;
2838;SDS011;1427;48.510;9.060;2024-03-02T09:58:33;52.07;;;6.83;;
2838;SDS011;1427;48.510;9.060;2024-03-02T10:01:05;53.93;;;6.40;;
2838;SDS011;1427;48.510;9.060;2024-03-02T10:03:34;50.37;;;4.93;;
2838;SDS011;1427;48.510;9.060;2024-03-02T10:06:21;51.07;;;5.10;;
2838;SDS011;1427;48.510;9.060;2024-03-02T10:08:50;52.53;;;4.87;;
2838;SDS011;1427;48.510;9.060;2024-03-02T10:11:27;49.10;;;5.07;;
2838;SDS011;1427;48.510;9.060;2024-03-02T10:14:04;50.70;;;5.33;;
2838;SDS011;1427;48.510;9.060;2024-03-02T10:16:36;50.07;;;4.73;;
2838;SDS011;1427;48.510;9.060;2024-03-02T10:21:54;52.00;;;5.37;;
2838;SDS011;1427;48.510;9.060;2024-03-02T10:24:25;51.80;;;4.67;;
2838;SDS011;1427;48.510;9.060;2024-03-02T10:26:54;49.43;;;4.30;;
2838;SDS011;1427;48.510;9.060;2024-03-02T10:29:22;51.47;;;6.23;;
2838;SDS011;1427;48.510;9.060;2024-03-02T10:31:56;49.10;;;5.20;;
2838;SDS011;1427;48.510;9.060;2024-03-02T10:34:25;49.40;;;4.83;;
2838;SDS011;1427;48.510;9.060;2024-03-02T10:36:53;50.77;;;5.90;;
2838;SDS011;1427;48.510;9.060;2024-03-02T10:39:22;51.33;;;5.07;;
2838;SDS011;1427;48.510;9.060;2024-03-02T10:41:52;50.80;;;6.00;;
2838;SDS011;1427;48.510;9.060;2024-03-02T10:44:20;51.27;;;5.57;;
2838;SDS011;1427;48.510;9.060;2024-03-02T10:46:50;50.67;;;4.97;;
2838;SDS011;1427;48.510;9.060;2024-03-02T10:49:20;52.20;;;5.47;;
2838;SDS011;1427;48.510;9.060;2024-03-02T10:51:51;52.37;;;6.00;;
2838;SDS011;1427;48.510;9.060;2024-03-02T10:54:19;50.20;;;4.83;;
2838;SDS011;1427;48.510;9.060;2024-03-02T10:56:52;51.50;;;5.30;;
2838;SDS011;1427;48.510;9.060;2024-03-02T10:59:24;49.90;;;4.53;;
2838;SDS011;1427;48.510;9.060;2024-03-02T11:01:56;51.37;;;5.83;;
2838;SDS011;1427;48.510;9.060;2024-03-02T11:04:32;49.27;;;5.20;;
2838;SDS011;1427;48.510;9.060;2024-03-02T11:07:02;49.27;;;4.90;;
2838;SDS011;1427;48.510;9.060;2024-03-02T11:09:33;50.77;;;5.00;;
2838;SDS011;1427;48.510;9.060;2024-03-02T11:12:02;50.27;;;5.17;;
2838;SDS011;1427;48.510;9.060;2024-03-02T11:14:33;48.33;;;3.80;;
2838;SDS011;1427;48.510;9.060;2024-03-02T11:17:09;50.80;;;4.50;;
2838;SDS011;1427;48.510;9.060;2024-03-02T11:19:40;49.50;;;5.40;;
2838;SDS011;1427;48.510;9.060;2024-03-02T11:22:09;48.73;;;4.47;;
2838;SDS011;1427;48.510;9.060;2024-03-02T11:24:38;48.97;;;5.00;;
2838;SDS011;1427;48.510;9.060;2024-03-02T11:27:08;49.17;;;4.47;;
2838;SDS011;1427;48.510;9.060;2024-03-02T11:29:45;49.60;;;4.43;;
2838;SDS011;1427;48.510;9.060;2024-03-02T11:32:14;47.87;;;4.00;;
2838;SDS011;1427;48.510;9.060;2024-03-02T11:34:50;48.33;;;4.27;;
2838;SDS011;1427;48.510;9.060;2024-03-02T11:37:19;48.20;;;4.70;;
2838;SDS011;1427;48.510;9.060;2024-03-02T11:39:49;48.20;;;4.20;;
2838;SDS011;1427;48.510;9.060;2024-03-02T11:42:18;47.80;;;3.60;;
2838;SDS011;1427;48.510;9.060;2024-03-02T11:44:47;47.60;;;3.90;;
2838;SDS011;1427;48.510;9.060;2024-03-02T11:47:16;50.13;;;5.10;;
2838;SDS011;1427;48.510;9.060;2024-03-02T11:49:45;48.00;;;4.07;;
2838;SDS011;1427;48.510;9.060;2024-03-02T11:52:18;47.77;;;3.87;;
2838;SDS011;1427;48.510;9.060;2024-03-02T11:54:46;49.30;;;4.87;;
2838;SDS011;1427;48.510;9.060;2024-03-02T11:57:16;47.80;;;3.70;;
2838;SDS011;1427;48.510;9.060;2024-03-02T11:59:46;50.10;;;4.87;;
2838;SDS011;1427;48.510;9.060;2024-03-02T12:02:16;50.60;;;4.83;;
2838;SDS011;1427;48.510;9.060;2024-03-02T12:04:45;50.17;;;3.87;;
2838;SDS011;1427;48.510;9.060;2024-03-02T12:07:19;47.97;;;4.30;;
2838;SDS011;1427;48.510;9.060;2024-03-02T12:09:49;47.27;;;3.70;;
2838;SDS011;1427;48.510;9.060;2024-03-02T12:12:26;47.97;;;3.50;;
2838;SDS011;1427;48.510;9.060;2024-03-02T12:14:54;47.80;;;3.80;;
2838;SDS011;1427;48.510;9.060;2024-03-02T12:17:23;48.00;;;3.60;;
2838;SDS011;1427;48.510;9.060;2024-03-02T12:19:51;47.20;;;3.80;;
2838;SDS011;1427;48.510;9.060;2024-03-02T12:22:20;48.77;;;3.93;;
2838;SDS011;1427;48.510;9.060;2024-03-02T12:24:49;51.93;;;3.70;;
2838;SDS011;1427;48.510;9.060;2024-03-02T12:27:17;48.80;;;4.60;;
2838;SDS011;1427;48.510;9.060;2024-03-02T12:29:47;47.27;;;3.50;;
2838;SDS011;1427;48.510;9.060;2024-03-02T12:32:16;47.80;;;4.23;;
2838;SDS011;1427;48.510;9.060;2024-03-02T12:34:46;47.40;;;3.20;;
2838;SDS011;1427;48.510;9.060;2024-03-02T12:37:14;48.00;;;4.83;;
2838;SDS011;1427;48.510;9.060;2024-03-02T12:39:45;49.27;;;4.60;;
2838;SDS011;1427;48.510;9.060;2024-03-02T12:42:14;49.63;;;6.90;;
2838;SDS011;1427;48.510;9.060;2024-03-02T12:44:42;48.30;;;4.97;;
2838;SDS011;1427;48.510;9.060;2024-03-02T12:47:10;47.80;;;4.47;;
2838;SDS011;1427;48.510;9.060;2024-03-02T12:49:40;49.00;;;4.80;;
2838;SDS011;1427;48.510;9.060;2024-03-02T12:52:08;48.63;;;4.80;;
2838;SDS011;1427;48.510;9.060;2024-03-02T12:54:39;50.87;;;5.90;;
2838;SDS011;1427;48.510;9.060;2024-03-02T12:57:10;48.37;;;4.60;;
2838;SDS011;1427;48.510;9.060;2024-03-02T12:59:45;47.70;;;4.60;;
2838;SDS011;1427;48.510;9.060;2024-03-02T13:02:16;49.17;;;5.50;;
2838;SDS011;1427;48.510;9.060;2024-03-02T13:04:51;48.40;;;4.97;;
2838;SDS011;1427;48.510;9.060;2024-03-02T13:07:22;49.10;;;5.50;;
2838;SDS011;1427;48.510;9.060;2024-03-02T13:09:51;52.03;;;6.20;;
2838;SDS011;1427;48.510;9.060;2024-03-02T13:12:23;48.57;;;5.07;;
2838;SDS011;1427;48.510;9.060;2024-03-02T13:14:52;50.07;;;6.20;;
2838;SDS011;1427;48.510;9.060;2024-03-02T13:17:20;49.47;;;5.63;;
2838;SDS011;1427;48.510;9.060;2024-03-02T13:19:51;48.67;;;5.10;;
2838;SDS011;1427;48.510;9.060;2024-03-02T13:22:20;49.17;;;5.77;;
2838;SDS011;1427;48.510;9.060;2024-03-02T13:24:49;49.27;;;5.40;;
2838;SDS011;1427;48.510;9.060;2024-03-02T13:27:18;50.10;;;5.93;;
2838;SDS011;1427;48.510;9.060;2024-03-02T13:29:48;49.10;;;5.07;;
2838;SDS011;1427;48.510;9.060;2024-03-02T13:32:16;52.47;;;6.03;;
2838;SDS011;1427;48.510;9.060;2024-03-02T13:34:47;51.70;;;5.80;;
2838;SDS011;1427;48.510;9.060;2024-03-02T13:37:15;50.30;;;4.37;;
2838;SDS011;1427;48.510;9.060;2024-03-02T13:39:43;48.00;;;4.60;;
2838;SDS011;1427;48.510;9.060;2024-03-02T13:42:11;50.43;;;4.90;;
2838;SDS011;1427;48.510;9.060;2024-03-02T13:44:42;49.63;;;5.77;;
2838;SDS011;1427;48.510;9.060;2024-03-02T13:47:13;49.40;;;5.60;;
2838;SDS011;1427;48.510;9.060;2024-03-02T13:49:41;47.67;;;4.33;;
2838;SDS011;1427;48.510;9.060;2024-03-02T13:52:12;48.27;;;5.00;;
2838;SDS011;1427;48.510;9.060;2024-03-02T13:54:42;49.67;;;6.83;;
2838;SDS011;1427;48.510;9.060;2024-03-02T13:57:11;52.43;;;5.50;;
2838;SDS011;1427;48.510;9.060;2024-03-02T13:59:40;52.42;;;6.35;;
2838;SDS011;1427;48.510;9.060;2024-03-02T14:02:10;51.53;;;5.43;;
2838;SDS011;1427;48.510;9.060;2024-03-02T14:04:41;48.53;;;5.07;;
2838;SDS011;1427;48.510;9.060;2024-03-02T14:07:09;48.17;;;5.23;;
2838;SDS011;1427;48.510;9.060;2024-03-02T14:09:38;48.80;;;5.30;;
2838;SDS011;1427;48.510;9.060;2024-03-02T14:12:06;53.67;;;8.57;;
2838;SDS011;1427;48.510;9.060;2024-03-02T14:14:35;53.90;;;6.63;;
2838;SDS011;1427;48.510;9.060;2024-03-02T14:17:03;48.80;;;5.60;;
2838;SDS011;1427;48.510;9.060;2024-03-02T14:19:34;48.60;;;5.10;;
2838;SDS011;1427;48.510;9.060;2024-03-02T14:22:02;48.50;;;4.27;;
2838;SDS011;1427;48.510;9.060;2024-03-02T14:24:32;48.53;;;4.93;;
2838;SDS011;1427;48.510;9.060;2024-03-02T14:27:00;50.03;;;4.93;;
2838;SDS011;1427;48.510;9.060;2024-03-02T14:29:45;47.80;;;4.93;;
2838;SDS011;1427;48.510;9.060;2024-03-02T14:32:13;48.50;;;4.87;;
2838;SDS011;1427;48.510;9.060;2024-03-02T14:34:43;50.80;;;6.87;;
2838;SDS011;1427;48.510;9.060;2024-03-02T14:37:13;61.67;;;5.93;;
2838;SDS011;1427;48.510;9.060;2024-03-02T14:39:42;49.07;;;5.77;;
2838;SDS011;1427;48.510;9.060;2024-03-02T14:42:10;48.80;;;5.07;;
2838;SDS011;1427;48.510;9.060;2024-03-02T14:44:38;48.30;;;4.77;;
2838;SDS011;1427;48.510;9.060;2024-03-02T14:47:06;49.13;;;4.93;;
2838;SDS011;1427;48.510;9.060;2024-03-02T14:49:34;48.70;;;5.07;;
2838;SDS011;1427;48.510;9.060;2024-03-02T14:52:08;48.37;;;5.47;;
2838;SDS011;1427;48.510;9.060;2024-03-02T14:54:36;48.77;;;4.50;;
2838;SDS011;1427;48.510;9.060;2024-03-02T14:57:04;47.60;;;4.50;;
2838;SDS011;1427;48.510;9.060;2024-03-02T14:59:33;47.20;;;4.37;;
2838;SDS011;1427;48.510;9.060;2024-03-02T15:02:01;48.57;;;5.43;;
2838;SDS011;1427;48.510;9.060;2024-03-02T15:04:30;48.60;;;4.93;;
2838;SDS011;1427;48.510;9.060;2024-03-02T15:06:58;48.00;;;4.27;;
2838;SDS011;1427;48.510;9.060;2024-03-02T15:09:27;47.20;;;4.03;;
2838;SDS011;1427;48.510;9.060;2024-03-02T15:11:56;48.00;;;4.70;;
2838;SDS011;1427;48.510;9.060;2024-03-02T15:14:24;48.10;;;5.30;;
2838;SDS011;1427;48.510;9.060;2024-03-02T15:16:52;48.30;;;6.03;;